SUI LFMN-EDDG
Flight info
| Callsign | SUI |
|---|---|
| Flight time | 1h 25m |
| Altitude | 25000 |
| Route | BASI7A BASIP ANAKI ABESI LOKTA TEDGO HAREM LOHRE Z850 HMM |
| Aircraft | A319/J-V/N |
Departure
| Time | 2026-05-07 19:52 |
|---|---|
| Airport | Nice-Côte d'Azur Airport (LFMN) |
Arrival
| Time | 2026-05-07 21:17 |
|---|---|
| Airport | Münster Osnabrück Airport (EDDG) |
| Time | Latitude | Longitude | Altitude | Speed | Heading |
|---|---|---|---|---|---|
| 2026-05-07 19:29 | 43.66487 | 7.21760 | 20 ft | 0 kts | 317° |
| 2026-05-07 19:42 | 43.66481 | 7.21768 | 20 ft | 3 kts | 317° |
| 2026-05-07 19:42 | 43.66455 | 7.21808 | 22 ft | 7 kts | 287° |
| 2026-05-07 19:42 | 43.66455 | 7.21827 | 21 ft | 0 kts | 229° |
| 2026-05-07 19:43 | 43.66431 | 7.21806 | 20 ft | 12 kts | 215° |
| 2026-05-07 19:43 | 43.66342 | 7.21691 | 17 ft | 21 kts | 227° |
| 2026-05-07 19:43 | 43.66235 | 7.21537 | 16 ft | 25 kts | 226° |
| 2026-05-07 19:44 | 43.66090 | 7.21337 | 16 ft | 29 kts | 223° |
| 2026-05-07 19:44 | 43.65954 | 7.21148 | 17 ft | 23 kts | 224° |
| 2026-05-07 19:44 | 43.65826 | 7.20974 | 19 ft | 23 kts | 223° |
| 2026-05-07 19:44 | 43.65800 | 7.20938 | 19 ft | 0 kts | 225° |
| 2026-05-07 19:46 | 43.65781 | 7.20913 | 19 ft | 12 kts | 216° |
| 2026-05-07 19:46 | 43.65725 | 7.20889 | 19 ft | 0 kts | 180° |
| 2026-05-07 19:47 | 43.65681 | 7.20896 | 19 ft | 17 kts | 170° |
| 2026-05-07 19:47 | 43.65547 | 7.20926 | 20 ft | 18 kts | 175° |
| 2026-05-07 19:48 | 43.65422 | 7.20954 | 21 ft | 18 kts | 168° |
| 2026-05-07 19:48 | 43.65326 | 7.20920 | 20 ft | 12 kts | 220° |
| 2026-05-07 19:48 | 43.65267 | 7.20850 | 18 ft | 12 kts | 226° |
| 2026-05-07 19:48 | 43.65169 | 7.20711 | 19 ft | 24 kts | 225° |
| 2026-05-07 19:49 | 43.65047 | 7.20541 | 21 ft | 25 kts | 225° |
| 2026-05-07 19:49 | 43.64950 | 7.20403 | 24 ft | 16 kts | 224° |
| 2026-05-07 19:49 | 43.64877 | 7.20307 | 25 ft | 13 kts | 225° |
| 2026-05-07 19:49 | 43.64824 | 7.20234 | 21 ft | 8 kts | 224° |
| 2026-05-07 19:50 | 43.64790 | 7.20200 | 21 ft | 3 kts | 207° |
| 2026-05-07 19:50 | 43.64775 | 7.20191 | 25 ft | 3 kts | 195° |
| 2026-05-07 19:50 | 43.64744 | 7.20191 | 23 ft | 6 kts | 164° |
| 2026-05-07 19:50 | 43.64725 | 7.20206 | 25 ft | 0 kts | 144° |
| 2026-05-07 19:51 | 43.64707 | 7.20239 | 25 ft | 12 kts | 114° |
| 2026-05-07 19:51 | 43.64744 | 7.20331 | 27 ft | 28 kts | 43° |
| 2026-05-07 19:51 | 43.65036 | 7.20747 | 24 ft | 92 kts | 45° |
| 2026-05-07 19:51 | 43.65641 | 7.21568 | 31 ft | 151 kts | 46° |
| 2026-05-07 19:52 | 43.66448 | 7.22747 | 421 ft | 175 kts | 49° |
| 2026-05-07 19:52 | 43.67165 | 7.24112 | 1198 ft | 178 kts | 60° |
| 2026-05-07 19:52 | 43.67640 | 7.25685 | 2016 ft | 177 kts | 75° |
| 2026-05-07 19:52 | 43.67796 | 7.27356 | 2685 ft | 183 kts | 85° |
| 2026-05-07 19:53 | 43.67903 | 7.29275 | 2897 ft | 215 kts | 83° |
| 2026-05-07 19:53 | 43.68424 | 7.31289 | 3407 ft | 233 kts | 59° |
| 2026-05-07 19:53 | 43.69306 | 7.33263 | 4009 ft | 250 kts | 58° |
| 2026-05-07 19:53 | 43.70166 | 7.35426 | 4866 ft | 263 kts | 72° |
| 2026-05-07 19:54 | 43.70455 | 7.37959 | 5637 ft | 281 kts | 88° |
| 2026-05-07 19:54 | 43.70559 | 7.40745 | 6410 ft | 298 kts | 84° |
| 2026-05-07 19:54 | 43.70980 | 7.43604 | 7331 ft | 308 kts | 72° |
| 2026-05-07 19:54 | 43.71712 | 7.46427 | 8383 ft | 313 kts | 70° |
| 2026-05-07 19:55 | 43.72446 | 7.49274 | 9527 ft | 315 kts | 71° |
| 2026-05-07 19:55 | 43.73156 | 7.52135 | 10665 ft | 313 kts | 71° |
| 2026-05-07 19:55 | 43.73848 | 7.54970 | 11829 ft | 308 kts | 72° |
| 2026-05-07 19:55 | 43.74523 | 7.57739 | 13062 ft | 299 kts | 72° |
| 2026-05-07 19:56 | 43.75173 | 7.60405 | 14289 ft | 285 kts | 72° |
| 2026-05-07 19:56 | 43.75792 | 7.62942 | 15323 ft | 277 kts | 72° |
| 2026-05-07 19:56 | 43.76412 | 7.65539 | 15525 ft | 301 kts | 72° |
| 2026-05-07 19:56 | 43.77087 | 7.68401 | 15732 ft | 323 kts | 72° |
| 2026-05-07 19:57 | 43.77845 | 7.71436 | 15934 ft | 347 kts | 70° |
| 2026-05-07 19:57 | 43.78718 | 7.74696 | 15932 ft | 375 kts | 70° |
| 2026-05-07 19:57 | 43.79689 | 7.78183 | 15998 ft | 401 kts | 68° |
| 2026-05-07 19:57 | 43.80868 | 7.81803 | 16068 ft | 425 kts | 62° |
| 2026-05-07 19:58 | 43.82659 | 7.85117 | 16048 ft | 435 kts | 46° |
| 2026-05-07 19:58 | 43.84104 | 7.87141 | 16032 ft | 439 kts | 45° |
| 2026-05-07 19:58 | 43.86254 | 7.90171 | 16025 ft | 444 kts | 47° |
| 2026-05-07 19:58 | 43.88193 | 7.93525 | 16020 ft | 447 kts | 56° |
| 2026-05-07 19:59 | 43.89887 | 7.97159 | 16014 ft | 451 kts | 58° |
| 2026-05-07 19:59 | 43.91493 | 8.00852 | 16019 ft | 454 kts | 59° |
| 2026-05-07 19:59 | 43.93091 | 8.04646 | 16018 ft | 457 kts | 60° |
| 2026-05-07 19:59 | 43.94680 | 8.08483 | 16022 ft | 459 kts | 60° |
| 2026-05-07 20:00 | 43.96265 | 8.12344 | 16022 ft | 461 kts | 60° |
| 2026-05-07 20:00 | 43.97852 | 8.16237 | 16016 ft | 463 kts | 61° |
| 2026-05-07 20:00 | 43.99436 | 8.20145 | 16018 ft | 465 kts | 61° |
| 2026-05-07 20:00 | 44.01020 | 8.24066 | 16015 ft | 466 kts | 61° |
| 2026-05-07 20:01 | 44.02607 | 8.28011 | 16017 ft | 467 kts | 61° |
| 2026-05-07 20:01 | 44.04196 | 8.31969 | 16022 ft | 469 kts | 61° |
| 2026-05-07 20:01 | 44.05782 | 8.35931 | 16017 ft | 470 kts | 61° |
| 2026-05-07 20:01 | 44.07371 | 8.39910 | 16015 ft | 471 kts | 61° |
| 2026-05-07 20:02 | 44.08958 | 8.43894 | 16014 ft | 471 kts | 61° |
| 2026-05-07 20:02 | 44.10546 | 8.47893 | 16010 ft | 472 kts | 61° |
| 2026-05-07 20:02 | 44.12130 | 8.51893 | 16014 ft | 473 kts | 62° |
| 2026-05-07 20:02 | 44.13712 | 8.55903 | 16009 ft | 473 kts | 62° |
| 2026-05-07 20:03 | 44.15273 | 8.59872 | 16010 ft | 474 kts | 62° |
| 2026-05-07 20:03 | 44.16850 | 8.63906 | 16007 ft | 474 kts | 62° |
| 2026-05-07 20:03 | 44.18426 | 8.67945 | 16004 ft | 474 kts | 60° |
| 2026-05-07 20:03 | 44.20445 | 8.71566 | 16000 ft | 475 kts | 44° |
| 2026-05-07 20:04 | 44.23132 | 8.74214 | 15995 ft | 475 kts | 27° |
| 2026-05-07 20:04 | 44.26259 | 8.75674 | 15993 ft | 475 kts | 10° |
| 2026-05-07 20:04 | 44.29534 | 8.76219 | 15994 ft | 474 kts | 4° |
| 2026-05-07 20:04 | 44.32824 | 8.76523 | 15991 ft | 474 kts | 2° |
| 2026-05-07 20:05 | 44.36120 | 8.76759 | 15994 ft | 474 kts | 2° |
| 2026-05-07 20:05 | 44.39416 | 8.76985 | 15992 ft | 474 kts | 2° |
| 2026-05-07 20:05 | 44.42713 | 8.77233 | 15995 ft | 474 kts | 2° |
| 2026-05-07 20:05 | 44.46008 | 8.77512 | 15996 ft | 475 kts | 3° |
| 2026-05-07 20:06 | 44.49307 | 8.77827 | 16002 ft | 475 kts | 3° |
| 2026-05-07 20:06 | 44.52606 | 8.78173 | 16008 ft | 475 kts | 4° |
| 2026-05-07 20:06 | 44.55863 | 8.78544 | 16007 ft | 475 kts | 4° |
| 2026-05-07 20:06 | 44.59157 | 8.78942 | 16001 ft | 475 kts | 4° |
| 2026-05-07 20:07 | 44.62453 | 8.79362 | 16007 ft | 475 kts | 4° |
| 2026-05-07 20:07 | 44.65746 | 8.79801 | 16004 ft | 475 kts | 5° |
| 2026-05-07 20:07 | 44.69035 | 8.80255 | 16006 ft | 475 kts | 5° |
| 2026-05-07 20:07 | 44.72330 | 8.80723 | 16008 ft | 475 kts | 5° |
| 2026-05-07 20:08 | 44.75621 | 8.81201 | 16008 ft | 475 kts | 5° |
| 2026-05-07 20:08 | 44.78912 | 8.81689 | 16001 ft | 475 kts | 5° |
| 2026-05-07 20:08 | 44.82200 | 8.82185 | 16000 ft | 475 kts | 5° |
| 2026-05-07 20:08 | 44.85485 | 8.82687 | 15997 ft | 475 kts | 5° |
| 2026-05-07 20:09 | 44.88772 | 8.83197 | 15997 ft | 475 kts | 5° |
| 2026-05-07 20:09 | 44.92014 | 8.83704 | 15996 ft | 474 kts | 5° |
| 2026-05-07 20:09 | 44.95293 | 8.84221 | 15993 ft | 474 kts | 5° |
| 2026-05-07 20:10 | 45.01855 | 8.85267 | 15992 ft | 474 kts | 5° |
| 2026-05-07 20:10 | 45.05133 | 8.85793 | 15995 ft | 474 kts | 5° |
| 2026-05-07 20:10 | 45.08410 | 8.86322 | 15993 ft | 474 kts | 5° |
| 2026-05-07 20:10 | 45.11691 | 8.86853 | 15995 ft | 474 kts | 5° |
| 2026-05-07 20:11 | 45.14965 | 8.87385 | 15994 ft | 474 kts | 5° |
| 2026-05-07 20:11 | 45.18242 | 8.87918 | 15996 ft | 473 kts | 5° |
| 2026-05-07 20:11 | 45.21514 | 8.88451 | 15991 ft | 473 kts | 5° |
| 2026-05-07 20:11 | 45.24790 | 8.88988 | 15990 ft | 473 kts | 5° |
| 2026-05-07 20:12 | 45.28059 | 8.89524 | 16024 ft | 473 kts | 5° |
| 2026-05-07 20:12 | 45.31331 | 8.90061 | 16030 ft | 473 kts | 5° |
| 2026-05-07 20:12 | 45.34598 | 8.90599 | 16023 ft | 473 kts | 5° |
| 2026-05-07 20:12 | 45.37869 | 8.91138 | 16026 ft | 473 kts | 5° |
| 2026-05-07 20:13 | 45.41136 | 8.91677 | 16015 ft | 473 kts | 5° |
| 2026-05-07 20:13 | 45.44407 | 8.92217 | 16009 ft | 473 kts | 5° |
| 2026-05-07 20:13 | 45.47679 | 8.92758 | 16009 ft | 473 kts | 5° |
| 2026-05-07 20:13 | 45.50949 | 8.93299 | 16011 ft | 473 kts | 5° |
| 2026-05-07 20:14 | 45.54217 | 8.93842 | 15991 ft | 473 kts | 5° |
| 2026-05-07 20:14 | 45.57487 | 8.94385 | 15994 ft | 473 kts | 5° |
| 2026-05-07 20:14 | 45.60712 | 8.94922 | 15996 ft | 473 kts | 5° |
| 2026-05-07 20:14 | 45.63980 | 8.95466 | 15987 ft | 473 kts | 5° |
| 2026-05-07 20:15 | 45.67248 | 8.96011 | 15993 ft | 473 kts | 5° |
| 2026-05-07 20:15 | 45.70510 | 8.96555 | 15990 ft | 473 kts | 5° |
| 2026-05-07 20:15 | 45.73780 | 8.97102 | 15983 ft | 473 kts | 5° |
| 2026-05-07 20:15 | 45.77050 | 8.97649 | 15984 ft | 473 kts | 5° |
| 2026-05-07 20:16 | 45.80319 | 8.98197 | 16005 ft | 473 kts | 5° |
| 2026-05-07 20:16 | 45.83583 | 8.98744 | 16004 ft | 473 kts | 5° |
| 2026-05-07 20:16 | 45.86854 | 8.99293 | 16015 ft | 472 kts | 5° |
| 2026-05-07 20:16 | 45.90122 | 8.99843 | 16014 ft | 472 kts | 5° |
| 2026-05-07 20:17 | 45.93386 | 9.00392 | 16025 ft | 473 kts | 5° |
| 2026-05-07 20:17 | 45.96657 | 9.00945 | 16034 ft | 473 kts | 5° |
| 2026-05-07 20:17 | 45.99925 | 9.01499 | 16025 ft | 473 kts | 5° |
| 2026-05-07 20:17 | 46.03195 | 9.02053 | 16022 ft | 473 kts | 5° |
| 2026-05-07 20:18 | 46.06466 | 9.02610 | 16023 ft | 473 kts | 5° |
| 2026-05-07 20:18 | 46.09731 | 9.03169 | 16019 ft | 473 kts | 5° |
| 2026-05-07 20:18 | 46.13005 | 9.03706 | 16005 ft | 473 kts | 4° |
| 2026-05-07 20:18 | 46.16288 | 9.04085 | 15996 ft | 473 kts | 2° |
| 2026-05-07 20:19 | 46.19567 | 9.04378 | 16006 ft | 473 kts | 1° |
| 2026-05-07 20:19 | 46.22858 | 9.04633 | 16006 ft | 473 kts | 1° |
| 2026-05-07 20:19 | 46.26144 | 9.04868 | 16008 ft | 473 kts | 1° |
| 2026-05-07 20:19 | 46.29435 | 9.05094 | 16014 ft | 474 kts | 1° |
| 2026-05-07 20:20 | 46.32686 | 9.05313 | 16014 ft | 474 kts | 1° |
| 2026-05-07 20:20 | 46.35981 | 9.05535 | 16011 ft | 474 kts | 1° |
| 2026-05-07 20:20 | 46.39277 | 9.05755 | 16020 ft | 474 kts | 1° |
| 2026-05-07 20:20 | 46.42578 | 9.05975 | 16020 ft | 474 kts | 1° |
| 2026-05-07 20:21 | 46.45874 | 9.06195 | 16030 ft | 474 kts | 1° |
| 2026-05-07 20:21 | 46.49173 | 9.06418 | 16028 ft | 474 kts | 1° |
| 2026-05-07 20:21 | 46.52473 | 9.06641 | 16010 ft | 474 kts | 1° |
| 2026-05-07 20:21 | 46.55763 | 9.06866 | 16010 ft | 473 kts | 1° |
| 2026-05-07 20:22 | 46.59051 | 9.07091 | 16019 ft | 473 kts | 1° |
| 2026-05-07 20:22 | 46.62334 | 9.07314 | 16012 ft | 472 kts | 1° |
| 2026-05-07 20:22 | 46.65617 | 9.07537 | 16019 ft | 472 kts | 1° |
| 2026-05-07 20:22 | 46.68897 | 9.07763 | 16029 ft | 472 kts | 1° |
| 2026-05-07 20:23 | 46.72177 | 9.07991 | 16029 ft | 472 kts | 1° |
| 2026-05-07 20:23 | 46.75453 | 9.08217 | 16036 ft | 472 kts | 1° |
| 2026-05-07 20:23 | 46.78734 | 9.08446 | 16040 ft | 472 kts | 1° |
| 2026-05-07 20:23 | 46.82022 | 9.08674 | 16037 ft | 472 kts | 1° |
| 2026-05-07 20:24 | 46.85305 | 9.08904 | 16043 ft | 472 kts | 1° |
| 2026-05-07 20:24 | 46.88590 | 9.09132 | 16049 ft | 473 kts | 1° |
| 2026-05-07 20:24 | 46.91876 | 9.09361 | 16047 ft | 473 kts | 1° |
| 2026-05-07 20:24 | 46.95124 | 9.09587 | 16038 ft | 473 kts | 1° |
| 2026-05-07 20:25 | 46.98413 | 9.09815 | 16056 ft | 473 kts | 1° |
| 2026-05-07 20:25 | 47.01708 | 9.10044 | 16057 ft | 474 kts | 1° |
| 2026-05-07 20:25 | 47.04998 | 9.10275 | 16065 ft | 475 kts | 1° |
| 2026-05-07 20:25 | 47.08305 | 9.10508 | 16058 ft | 475 kts | 1° |
| 2026-05-07 20:26 | 47.11608 | 9.10741 | 16046 ft | 476 kts | 1° |
| 2026-05-07 20:26 | 47.14911 | 9.10974 | 16046 ft | 476 kts | 1° |
| 2026-05-07 20:26 | 47.18215 | 9.11206 | 16041 ft | 476 kts | 1° |
| 2026-05-07 20:26 | 47.21523 | 9.11440 | 16044 ft | 475 kts | 1° |
| 2026-05-07 20:27 | 47.24836 | 9.11675 | 16044 ft | 475 kts | 1° |
| 2026-05-07 20:27 | 47.28135 | 9.11908 | 16042 ft | 475 kts | 1° |
| 2026-05-07 20:27 | 47.31453 | 9.12143 | 16046 ft | 475 kts | 1° |
| 2026-05-07 20:27 | 47.34756 | 9.12376 | 16034 ft | 475 kts | 1° |
| 2026-05-07 20:28 | 47.38060 | 9.12611 | 16040 ft | 475 kts | 1° |
| 2026-05-07 20:28 | 47.41360 | 9.12844 | 16042 ft | 475 kts | 1° |
| 2026-05-07 20:28 | 47.44661 | 9.13079 | 16036 ft | 475 kts | 1° |
| 2026-05-07 20:28 | 47.47968 | 9.13314 | 16039 ft | 475 kts | 1° |
| 2026-05-07 20:29 | 47.51267 | 9.13548 | 16043 ft | 475 kts | 1° |
| 2026-05-07 20:29 | 47.54573 | 9.13784 | 16042 ft | 475 kts | 1° |
| 2026-05-07 20:29 | 47.57876 | 9.14019 | 16048 ft | 475 kts | 1° |
| 2026-05-07 20:29 | 47.61179 | 9.14254 | 16044 ft | 475 kts | 1° |
| 2026-05-07 20:30 | 47.64483 | 9.14490 | 16047 ft | 475 kts | 1° |
| 2026-05-07 20:30 | 47.67740 | 9.14723 | 16046 ft | 475 kts | 1° |
| 2026-05-07 20:30 | 47.71039 | 9.14959 | 16048 ft | 475 kts | 1° |
| 2026-05-07 20:30 | 47.74340 | 9.15195 | 16050 ft | 475 kts | 1° |
| 2026-05-07 20:31 | 47.77641 | 9.15432 | 16051 ft | 475 kts | 1° |
| 2026-05-07 20:31 | 47.80943 | 9.15669 | 16055 ft | 474 kts | 1° |
| 2026-05-07 20:31 | 47.84240 | 9.15906 | 16055 ft | 474 kts | 1° |
| 2026-05-07 20:31 | 47.87536 | 9.16144 | 16053 ft | 474 kts | 1° |
| 2026-05-07 20:32 | 47.90837 | 9.16382 | 16057 ft | 474 kts | 1° |
| 2026-05-07 20:32 | 47.94133 | 9.16621 | 16062 ft | 474 kts | 1° |
| 2026-05-07 20:32 | 47.97432 | 9.16861 | 16063 ft | 474 kts | 1° |
| 2026-05-07 20:32 | 48.00725 | 9.17100 | 16066 ft | 474 kts | 1° |
| 2026-05-07 20:33 | 48.04014 | 9.17340 | 16070 ft | 474 kts | 1° |
| 2026-05-07 20:33 | 48.07316 | 9.17582 | 16071 ft | 474 kts | 1° |
| 2026-05-07 20:33 | 48.10575 | 9.17820 | 16071 ft | 474 kts | 1° |
| 2026-05-07 20:33 | 48.13868 | 9.18091 | 16069 ft | 474 kts | 2° |
| 2026-05-07 20:34 | 48.17161 | 9.18487 | 16072 ft | 474 kts | 3° |
| 2026-05-07 20:34 | 48.20450 | 9.18954 | 16076 ft | 474 kts | 4° |
| 2026-05-07 20:34 | 48.23733 | 9.19462 | 16074 ft | 475 kts | 4° |
| 2026-05-07 20:34 | 48.27016 | 9.19992 | 16075 ft | 475 kts | 4° |
| 2026-05-07 20:35 | 48.30296 | 9.20534 | 16075 ft | 475 kts | 5° |
| 2026-05-07 20:35 | 48.33582 | 9.21085 | 16076 ft | 474 kts | 5° |
| 2026-05-07 20:35 | 48.36866 | 9.21641 | 16080 ft | 474 kts | 5° |
| 2026-05-07 20:35 | 48.40156 | 9.22200 | 16079 ft | 474 kts | 5° |
| 2026-05-07 20:36 | 48.43435 | 9.22757 | 16077 ft | 474 kts | 5° |
| 2026-05-07 20:36 | 48.46716 | 9.23317 | 16073 ft | 474 kts | 5° |
| 2026-05-07 20:36 | 48.50001 | 9.23879 | 16081 ft | 474 kts | 5° |
| 2026-05-07 20:36 | 48.53281 | 9.24440 | 16077 ft | 474 kts | 5° |
| 2026-05-07 20:37 | 48.56520 | 9.24996 | 16078 ft | 474 kts | 5° |
| 2026-05-07 20:37 | 48.59846 | 9.25556 | 16072 ft | 474 kts | 4° |
| 2026-05-07 20:37 | 48.63127 | 9.26082 | 16073 ft | 474 kts | 4° |
| 2026-05-07 20:37 | 48.66405 | 9.26593 | 16077 ft | 474 kts | 4° |
| 2026-05-07 20:38 | 48.69685 | 9.27098 | 16075 ft | 474 kts | 4° |
| 2026-05-07 20:38 | 48.72964 | 9.27600 | 16075 ft | 474 kts | 4° |
| 2026-05-07 20:38 | 48.76244 | 9.28100 | 16076 ft | 474 kts | 4° |
| 2026-05-07 20:38 | 48.79525 | 9.28601 | 16079 ft | 474 kts | 4° |
| 2026-05-07 20:39 | 48.82760 | 9.29097 | 16076 ft | 474 kts | 4° |
| 2026-05-07 20:39 | 48.86042 | 9.29598 | 16075 ft | 473 kts | 4° |
| 2026-05-07 20:39 | 48.89320 | 9.30099 | 16073 ft | 473 kts | 4° |
| 2026-05-07 20:39 | 48.92593 | 9.30602 | 16075 ft | 473 kts | 4° |
| 2026-05-07 20:40 | 48.95873 | 9.31107 | 16078 ft | 473 kts | 4° |
| 2026-05-07 20:40 | 48.99147 | 9.31612 | 16075 ft | 473 kts | 4° |
| 2026-05-07 20:40 | 49.02423 | 9.32119 | 16078 ft | 473 kts | 4° |
| 2026-05-07 20:40 | 49.05699 | 9.32626 | 16073 ft | 473 kts | 4° |
| 2026-05-07 20:41 | 49.08976 | 9.33134 | 16083 ft | 473 kts | 4° |
| 2026-05-07 20:41 | 49.12260 | 9.33644 | 16078 ft | 473 kts | 4° |
| 2026-05-07 20:41 | 49.15528 | 9.34151 | 16077 ft | 473 kts | 4° |
| 2026-05-07 20:41 | 49.18799 | 9.34661 | 16076 ft | 472 kts | 4° |
| 2026-05-07 20:42 | 49.22030 | 9.35165 | 16075 ft | 472 kts | 4° |
| 2026-05-07 20:42 | 49.25299 | 9.35675 | 16075 ft | 472 kts | 4° |
| 2026-05-07 20:42 | 49.28564 | 9.36187 | 16075 ft | 472 kts | 4° |
| 2026-05-07 20:42 | 49.31832 | 9.36700 | 16080 ft | 472 kts | 4° |
| 2026-05-07 20:43 | 49.35098 | 9.37212 | 16080 ft | 472 kts | 5° |
| 2026-05-07 20:43 | 49.38371 | 9.37726 | 16081 ft | 472 kts | 5° |
| 2026-05-07 20:43 | 49.41640 | 9.38242 | 16078 ft | 471 kts | 5° |
| 2026-05-07 20:43 | 49.44901 | 9.38758 | 16082 ft | 471 kts | 5° |
| 2026-05-07 20:44 | 49.48163 | 9.39275 | 16079 ft | 471 kts | 5° |
| 2026-05-07 20:44 | 49.51424 | 9.39793 | 16081 ft | 471 kts | 5° |
| 2026-05-07 20:44 | 49.54681 | 9.40310 | 16081 ft | 471 kts | 4° |
| 2026-05-07 20:44 | 49.56850 | 9.40655 | 16081 ft | 471 kts | 5° |
| 2026-05-07 20:45 | 49.60114 | 9.41174 | 16081 ft | 471 kts | 4° |
| 2026-05-07 20:45 | 49.64426 | 9.41858 | 16080 ft | 471 kts | 4° |
| 2026-05-07 20:45 | 49.67699 | 9.42378 | 16078 ft | 471 kts | 4° |
| 2026-05-07 20:45 | 49.70954 | 9.42895 | 16085 ft | 471 kts | 4° |
| 2026-05-07 20:46 | 49.73156 | 9.43245 | 16079 ft | 471 kts | 4° |
| 2026-05-07 20:46 | 49.76415 | 9.43764 | 16083 ft | 470 kts | 4° |
| 2026-05-07 20:46 | 49.79673 | 9.44283 | 16084 ft | 470 kts | 4° |
| 2026-05-07 20:46 | 49.82891 | 9.44797 | 16084 ft | 470 kts | 4° |
| 2026-05-07 20:47 | 49.86152 | 9.45319 | 16083 ft | 470 kts | 4° |
| 2026-05-07 20:47 | 49.89407 | 9.45840 | 16087 ft | 470 kts | 4° |
| 2026-05-07 20:47 | 49.92667 | 9.46365 | 16088 ft | 470 kts | 4° |
| 2026-05-07 20:47 | 49.95923 | 9.46891 | 16083 ft | 470 kts | 4° |
| 2026-05-07 20:48 | 49.99185 | 9.47417 | 16086 ft | 470 kts | 4° |
| 2026-05-07 20:48 | 50.02437 | 9.47942 | 16082 ft | 470 kts | 4° |
| 2026-05-07 20:48 | 50.05695 | 9.47862 | 16080 ft | 467 kts | 350° |
| 2026-05-07 20:48 | 50.08781 | 9.46358 | 16084 ft | 464 kts | 333° |
| 2026-05-07 20:49 | 50.11489 | 9.43658 | 16089 ft | 462 kts | 322° |
| 2026-05-07 20:49 | 50.14004 | 9.40527 | 16085 ft | 462 kts | 319° |
| 2026-05-07 20:49 | 50.16458 | 9.37278 | 16092 ft | 462 kts | 318° |
| 2026-05-07 20:49 | 50.18888 | 9.33992 | 16094 ft | 462 kts | 318° |
| 2026-05-07 20:50 | 50.21313 | 9.30702 | 16094 ft | 462 kts | 318° |
| 2026-05-07 20:50 | 50.23746 | 9.27417 | 16095 ft | 462 kts | 318° |
| 2026-05-07 20:50 | 50.26162 | 9.24187 | 16092 ft | 462 kts | 319° |
| 2026-05-07 20:50 | 50.28618 | 9.20939 | 16094 ft | 462 kts | 319° |
| 2026-05-07 20:51 | 50.31086 | 9.17711 | 16092 ft | 463 kts | 319° |
| 2026-05-07 20:51 | 50.33573 | 9.14496 | 16094 ft | 463 kts | 320° |
| 2026-05-07 20:51 | 50.36063 | 9.11299 | 16097 ft | 463 kts | 320° |
| 2026-05-07 20:51 | 50.38557 | 9.08108 | 16097 ft | 463 kts | 320° |
| 2026-05-07 20:52 | 50.41050 | 9.04919 | 16094 ft | 463 kts | 320° |
| 2026-05-07 20:52 | 50.43546 | 9.01726 | 16099 ft | 463 kts | 320° |
| 2026-05-07 20:52 | 50.46047 | 8.98524 | 16097 ft | 463 kts | 320° |
| 2026-05-07 20:52 | 50.48538 | 8.95329 | 16098 ft | 463 kts | 320° |
| 2026-05-07 20:53 | 50.51047 | 8.92144 | 16097 ft | 463 kts | 320° |
| 2026-05-07 20:53 | 50.53582 | 8.89011 | 16099 ft | 464 kts | 321° |
| 2026-05-07 20:53 | 50.56134 | 8.85902 | 16098 ft | 464 kts | 321° |
| 2026-05-07 20:53 | 50.58689 | 8.82809 | 16107 ft | 464 kts | 321° |
| 2026-05-07 20:54 | 50.61253 | 8.79716 | 16106 ft | 464 kts | 321° |
| 2026-05-07 20:54 | 50.63815 | 8.76629 | 16102 ft | 464 kts | 321° |
| 2026-05-07 20:54 | 50.66382 | 8.73537 | 16104 ft | 464 kts | 322° |
| 2026-05-07 20:54 | 50.68948 | 8.70443 | 16108 ft | 464 kts | 321° |
| 2026-05-07 20:55 | 50.71515 | 8.67346 | 16106 ft | 464 kts | 321° |
| 2026-05-07 20:55 | 50.74080 | 8.64246 | 16108 ft | 464 kts | 321° |
| 2026-05-07 20:55 | 50.76647 | 8.61141 | 16107 ft | 464 kts | 321° |
| 2026-05-07 20:55 | 50.79182 | 8.58071 | 16104 ft | 464 kts | 321° |
| 2026-05-07 20:56 | 50.81745 | 8.54960 | 16106 ft | 464 kts | 321° |
| 2026-05-07 20:56 | 50.84307 | 8.51847 | 16104 ft | 465 kts | 321° |
| 2026-05-07 20:56 | 50.86876 | 8.48721 | 16100 ft | 465 kts | 321° |
| 2026-05-07 20:56 | 50.89436 | 8.45602 | 16103 ft | 465 kts | 321° |
| 2026-05-07 20:57 | 50.91990 | 8.42484 | 16102 ft | 465 kts | 321° |
| 2026-05-07 20:57 | 50.94550 | 8.39356 | 16104 ft | 465 kts | 321° |
| 2026-05-07 20:57 | 50.97116 | 8.36212 | 16108 ft | 465 kts | 321° |
| 2026-05-07 20:57 | 50.99699 | 8.33132 | 16107 ft | 465 kts | 323° |
| 2026-05-07 20:58 | 51.02386 | 8.30256 | 16109 ft | 466 kts | 326° |
| 2026-05-07 20:58 | 51.05142 | 8.27534 | 16110 ft | 466 kts | 328° |
| 2026-05-07 20:58 | 51.07930 | 8.24937 | 16065 ft | 456 kts | 329° |
| 2026-05-07 20:58 | 51.10617 | 8.22512 | 15606 ft | 435 kts | 329° |
| 2026-05-07 20:59 | 51.13210 | 8.20209 | 15141 ft | 418 kts | 330° |
| 2026-05-07 20:59 | 51.15715 | 8.18000 | 14720 ft | 403 kts | 330° |
| 2026-05-07 20:59 | 51.18132 | 8.15871 | 14327 ft | 390 kts | 330° |
| 2026-05-07 20:59 | 51.20456 | 8.13819 | 13682 ft | 385 kts | 330° |
| 2026-05-07 21:00 | 51.22785 | 8.11754 | 12971 ft | 381 kts | 330° |
| 2026-05-07 21:00 | 51.25090 | 8.09702 | 12284 ft | 377 kts | 330° |
| 2026-05-07 21:00 | 51.27371 | 8.07663 | 11608 ft | 374 kts | 330° |
| 2026-05-07 21:00 | 51.29636 | 8.05634 | 10972 ft | 370 kts | 330° |
| 2026-05-07 21:01 | 51.31864 | 8.03634 | 10526 ft | 362 kts | 330° |
| 2026-05-07 21:01 | 51.34026 | 8.01693 | 10294 ft | 349 kts | 330° |
| 2026-05-07 21:01 | 51.36101 | 7.99829 | 10189 ft | 334 kts | 330° |
| 2026-05-07 21:01 | 51.38086 | 7.98045 | 10144 ft | 319 kts | 330° |
| 2026-05-07 21:02 | 51.39983 | 7.96338 | 10126 ft | 306 kts | 330° |
| 2026-05-07 21:02 | 51.41800 | 7.94701 | 10115 ft | 293 kts | 330° |
| 2026-05-07 21:02 | 51.43546 | 7.93128 | 10112 ft | 282 kts | 330° |
| 2026-05-07 21:02 | 51.45221 | 7.91622 | 9749 ft | 284 kts | 331° |
| 2026-05-07 21:03 | 51.47039 | 7.90237 | 9336 ft | 287 kts | 336° |
| 2026-05-07 21:03 | 51.48876 | 7.89060 | 9123 ft | 283 kts | 339° |
| 2026-05-07 21:03 | 51.50723 | 7.87984 | 8869 ft | 282 kts | 340° |
| 2026-05-07 21:03 | 51.52575 | 7.86972 | 8614 ft | 280 kts | 341° |
| 2026-05-07 21:04 | 51.54425 | 7.86006 | 8361 ft | 279 kts | 342° |
| 2026-05-07 21:04 | 51.56268 | 7.85055 | 8111 ft | 277 kts | 342° |
| 2026-05-07 21:04 | 51.58101 | 7.84147 | 7695 ft | 275 kts | 343° |
| 2026-05-07 21:04 | 51.59930 | 7.83269 | 7312 ft | 273 kts | 343° |
| 2026-05-07 21:05 | 51.61740 | 7.82403 | 6933 ft | 270 kts | 343° |
| 2026-05-07 21:05 | 51.63532 | 7.81544 | 6545 ft | 267 kts | 343° |
| 2026-05-07 21:05 | 51.65311 | 7.80688 | 6052 ft | 266 kts | 344° |
| 2026-05-07 21:05 | 51.67081 | 7.79835 | 5545 ft | 265 kts | 344° |
| 2026-05-07 21:06 | 51.68847 | 7.78984 | 5051 ft | 264 kts | 344° |
| 2026-05-07 21:06 | 51.70607 | 7.78136 | 4561 ft | 263 kts | 344° |
| 2026-05-07 21:06 | 51.72333 | 7.77302 | 4077 ft | 262 kts | 344° |
| 2026-05-07 21:06 | 51.74076 | 7.76459 | 3618 ft | 260 kts | 344° |
| 2026-05-07 21:07 | 51.75792 | 7.75630 | 3320 ft | 252 kts | 344° |
| 2026-05-07 21:07 | 51.77423 | 7.74839 | 3199 ft | 237 kts | 344° |
| 2026-05-07 21:07 | 51.78952 | 7.74098 | 3145 ft | 220 kts | 344° |
| 2026-05-07 21:07 | 51.80357 | 7.73417 | 3127 ft | 201 kts | 345° |
| 2026-05-07 21:08 | 51.81630 | 7.72800 | 3035 ft | 183 kts | 345° |
| 2026-05-07 21:08 | 51.82788 | 7.72236 | 3041 ft | 158 kts | 345° |
| 2026-05-07 21:08 | 51.83753 | 7.71764 | 3059 ft | 131 kts | 345° |
| 2026-05-07 21:08 | 51.84612 | 7.71352 | 2824 ft | 144 kts | 345° |
| 2026-05-07 21:09 | 51.85612 | 7.70959 | 3025 ft | 159 kts | 352° |
| 2026-05-07 21:09 | 51.86827 | 7.70743 | 3081 ft | 192 kts | 357° |
| 2026-05-07 21:09 | 51.88240 | 7.70688 | 3085 ft | 201 kts | 8° |
| 2026-05-07 21:09 | 51.89416 | 7.71490 | 2916 ft | 175 kts | 32° |
| 2026-05-07 21:10 | 51.90413 | 7.72524 | 2612 ft | 163 kts | 33° |
| 2026-05-07 21:10 | 51.91322 | 7.73403 | 2565 ft | 143 kts | 31° |
| 2026-05-07 21:10 | 51.92199 | 7.73869 | 2557 ft | 133 kts | 350° |
| 2026-05-07 21:10 | 51.93059 | 7.73090 | 2555 ft | 156 kts | 324° |
| 2026-05-07 21:11 | 51.93961 | 7.71981 | 2876 ft | 176 kts | 326° |
| 2026-05-07 21:11 | 51.95136 | 7.71058 | 3017 ft | 201 kts | 342° |
| 2026-05-07 21:11 | 51.97848 | 7.69969 | 3099 ft | 176 kts | 351° |
| 2026-05-07 21:12 | 51.99033 | 7.69715 | 3111 ft | 174 kts | 356° |
| 2026-05-07 21:12 | 52.00288 | 7.69571 | 3122 ft | 186 kts | 358° |
| 2026-05-07 21:12 | 52.01598 | 7.69460 | 3123 ft | 189 kts | 359° |
| 2026-05-07 21:12 | 52.02896 | 7.69360 | 3125 ft | 185 kts | 359° |
| 2026-05-07 21:13 | 52.04165 | 7.69262 | 3121 ft | 179 kts | 359° |
| 2026-05-07 21:13 | 52.05356 | 7.69164 | 3121 ft | 164 kts | 359° |
| 2026-05-07 21:13 | 52.06498 | 7.69369 | 2949 ft | 171 kts | 24° |
| 2026-05-07 21:13 | 52.07380 | 7.70659 | 2798 ft | 176 kts | 58° |
| 2026-05-07 21:14 | 52.08040 | 7.72333 | 2775 ft | 175 kts | 59° |
| 2026-05-07 21:14 | 52.08688 | 7.74012 | 2745 ft | 175 kts | 58° |
| 2026-05-07 21:14 | 52.09341 | 7.75637 | 2709 ft | 173 kts | 57° |
| 2026-05-07 21:14 | 52.10007 | 7.77252 | 2667 ft | 171 kts | 57° |
| 2026-05-07 21:15 | 52.10727 | 7.78766 | 2639 ft | 167 kts | 47° |
| 2026-05-07 21:15 | 52.11710 | 7.79707 | 2582 ft | 167 kts | 14° |
| 2026-05-07 21:15 | 52.12844 | 7.79442 | 2514 ft | 169 kts | 334° |
| 2026-05-07 21:15 | 52.13649 | 7.78080 | 2386 ft | 165 kts | 305° |
| 2026-05-07 21:16 | 52.14271 | 7.76564 | 1891 ft | 162 kts | 304° |
| 2026-05-07 21:16 | 52.14684 | 7.74865 | 1203 ft | 166 kts | 269° |
| 2026-05-07 21:16 | 52.14420 | 7.73047 | 606 ft | 163 kts | 252° |
| 2026-05-07 21:16 | 52.14069 | 7.71380 | 359 ft | 148 kts | 254° |
| 2026-05-07 21:17 | 52.13754 | 7.69873 | 198 ft | 134 kts | 252° |
| 2026-05-07 21:17 | 52.13483 | 7.68519 | 167 ft | 111 kts | 249° |
| 2026-05-07 21:17 | 52.13357 | 7.67970 | 166 ft | 0 kts | 252° |
| 2026-05-07 21:17 | 52.13356 | 7.67970 | 166 ft | 0 kts | 252° |